createdAt,value
2019-05-20T00:00:26.851Z,596.83
2019-05-20T00:02:55.265Z,607.50
2019-05-20T00:05:23.723Z,578.83
2019-05-20T00:07:52.160Z,612.97
2019-05-20T00:10:20.586Z,574.03
2019-05-20T00:12:48.984Z,595.87
2019-05-20T00:15:17.384Z,574.37
2019-05-20T00:17:45.806Z,581.03
2019-05-20T00:20:14.340Z,559.23
2019-05-20T00:22:42.749Z,546.60
2019-05-20T00:25:11.291Z,567.80
2019-05-20T00:27:39.753Z,584.13
2019-05-20T00:30:09.205Z,556.03
2019-05-20T00:32:42.338Z,569.83
2019-05-20T00:35:08.709Z,548.57
2019-05-20T00:37:37.117Z,527.03
2019-05-20T00:40:08.928Z,513.73
2019-05-20T00:42:37.327Z,521.50
2019-05-20T00:45:07.175Z,510.93
2019-05-20T00:47:35.574Z,487.70
2019-05-20T00:50:06.741Z,473.07
2019-05-20T00:52:35.177Z,478.77
2019-05-20T00:55:04.929Z,477.67
2019-05-20T00:57:33.348Z,470.67
2019-05-20T01:00:02.035Z,473.87
2019-05-20T01:02:31.344Z,505.17
2019-05-20T01:04:59.748Z,459.57
2019-05-20T01:07:28.170Z,466.83
2019-05-20T01:09:56.570Z,421.57
2019-05-20T01:12:25.229Z,417.13
2019-05-20T01:14:53.631Z,388.67
2019-05-20T01:17:22.036Z,399.57
2019-05-20T01:19:50.441Z,403.90
2019-05-20T01:22:18.870Z,370.80
2019-05-20T01:24:47.511Z,389.03
2019-05-20T01:27:15.917Z,385.10
2019-05-20T01:29:44.328Z,391.10
2019-05-20T01:32:12.741Z,394.83
2019-05-20T01:34:41.142Z,386.00
2019-05-20T01:37:09.540Z,376.67
2019-05-20T01:39:37.953Z,312.63
2019-05-20T01:42:06.539Z,332.27
2019-05-20T01:44:35.009Z,322.87
2019-05-20T01:47:03.413Z,337.17
2019-05-20T01:49:31.804Z,306.60
2019-05-20T01:52:00.284Z,271.43
2019-05-20T01:54:28.681Z,256.27
2019-05-20T01:56:57.082Z,243.23
2019-05-20T01:59:25.486Z,249.30
2019-05-20T02:01:53.888Z,246.00
2019-05-20T02:04:22.537Z,240.83
2019-05-20T02:06:51.008Z,241.93
2019-05-20T02:09:19.409Z,262.77
2019-05-20T02:11:47.805Z,252.17
2019-05-20T02:14:33.100Z,259.33
2019-05-20T02:17:02.760Z,286.50
2019-05-20T02:19:31.774Z,283.10
2019-05-20T02:22:00.186Z,322.83
2019-05-20T02:24:28.616Z,295.93
2019-05-20T02:26:57.078Z,276.53
2019-05-20T02:29:25.471Z,308.43
2019-05-20T02:31:53.870Z,298.43
2019-05-20T02:34:22.430Z,288.07
2019-05-20T02:36:50.853Z,304.20
2019-05-20T02:39:19.250Z,307.37
2019-05-20T02:41:47.650Z,265.50
2019-05-20T02:44:16.053Z,279.40
2019-05-20T02:46:44.455Z,236.20
2019-05-20T02:49:12.851Z,244.27
2019-05-20T02:51:41.264Z,239.17
2019-05-20T02:54:09.914Z,241.33
2019-05-20T02:56:38.385Z,235.77
2019-05-20T02:59:06.842Z,272.23
2019-05-20T03:01:35.269Z,246.17
2019-05-20T03:04:11.653Z,264.80
2019-05-20T03:06:34.132Z,260.37
2019-05-20T03:09:02.798Z,245.50
2019-05-20T03:11:31.196Z,260.93
2019-05-20T03:13:59.594Z,248.50
2019-05-20T03:16:28.002Z,247.87
2019-05-20T03:18:56.398Z,264.87
2019-05-20T03:21:24.794Z,261.63
2019-05-20T03:23:53.215Z,260.30
2019-05-20T03:26:21.613Z,261.47
2019-05-20T03:28:50.021Z,264.43
2019-05-20T03:31:18.413Z,259.47
2019-05-20T03:33:46.818Z,272.30
2019-05-20T03:36:15.228Z,263.53
2019-05-20T03:38:43.646Z,265.70
2019-05-20T03:41:12.042Z,267.80
2019-05-20T03:43:40.442Z,257.07
2019-05-20T03:46:08.866Z,258.40
2019-05-20T03:48:37.264Z,265.20
2019-05-20T03:51:05.662Z,247.00
2019-05-20T03:53:34.061Z,253.17
2019-05-20T03:56:02.715Z,231.67
2019-05-20T03:58:31.126Z,225.70
2019-05-20T04:00:59.530Z,217.13
2019-05-20T04:03:27.928Z,194.67
2019-05-20T04:05:56.359Z,204.80
2019-05-20T04:08:24.749Z,194.57
2019-05-20T04:10:53.149Z,190.50
2019-05-20T04:13:21.541Z,192.87
2019-05-20T04:15:49.947Z,208.90
2019-05-20T04:18:18.361Z,205.00
2019-05-20T04:20:46.834Z,190.73
2019-05-20T04:23:15.298Z,172.83
2019-05-20T04:25:43.709Z,164.83
2019-05-20T04:28:12.113Z,149.10
2019-05-20T04:30:41.258Z,169.63
2019-05-20T04:33:09.678Z,172.83
2019-05-20T04:35:38.478Z,155.00
2019-05-20T04:38:06.956Z,160.37
2019-05-20T04:40:35.340Z,161.13
2019-05-20T04:43:03.810Z,160.43
2019-05-20T04:45:32.206Z,158.80
2019-05-20T04:48:00.687Z,145.40
2019-05-20T04:50:29.089Z,146.73
2019-05-20T04:52:58.495Z,147.33
2019-05-20T04:55:26.882Z,134.43
2019-05-20T04:57:55.279Z,137.47
2019-05-20T05:00:49.638Z,131.63
2019-05-20T05:03:18.046Z,128.53
2019-05-20T05:05:46.590Z,128.63
2019-05-20T05:08:15.069Z,115.33
2019-05-20T05:10:43.473Z,84.70
2019-05-20T05:13:11.869Z,92.77
2019-05-20T05:15:40.350Z,91.33
2019-05-20T05:18:08.750Z,87.77
2019-05-20T05:20:37.237Z,77.43
2019-05-20T05:23:05.701Z,83.67
2019-05-20T05:25:35.516Z,85.47
2019-05-20T05:28:04.949Z,97.37
2019-05-20T05:30:35.878Z,84.13
2019-05-20T05:33:04.338Z,82.60
2019-05-20T05:35:32.818Z,82.30
2019-05-20T05:38:01.966Z,75.17
2019-05-20T05:40:31.867Z,79.10
2019-05-20T05:43:01.026Z,80.00
2019-05-20T05:45:32.897Z,70.27
2019-05-20T05:48:01.446Z,67.80
2019-05-20T05:50:29.914Z,63.53
2019-05-20T05:52:58.320Z,69.70
2019-05-20T05:55:26.713Z,64.90
2019-05-20T05:57:55.117Z,64.67
2019-05-20T06:00:25.824Z,63.73
2019-05-20T06:02:54.239Z,66.50
2019-05-20T06:05:22.708Z,60.37
2019-05-20T06:07:51.114Z,56.27
2019-05-20T06:10:21.744Z,54.17
2019-05-20T06:12:50.149Z,50.77
2019-05-20T06:15:19.593Z,57.17
2019-05-20T06:17:47.984Z,51.43
2019-05-20T06:20:17.554Z,54.57
2019-05-20T06:22:45.952Z,61.27
2019-05-20T06:25:16.751Z,56.13
2019-05-20T06:27:45.137Z,56.00
2019-05-20T06:30:14.479Z,51.60
2019-05-20T06:32:42.889Z,54.03
2019-05-20T06:35:13.317Z,54.33
2019-05-20T06:37:44.122Z,54.27
2019-05-20T06:40:12.671Z,58.20
2019-05-20T06:42:41.069Z,56.23
2019-05-20T06:45:10.406Z,61.70
2019-05-20T06:47:38.822Z,64.80
2019-05-20T06:50:09.615Z,70.23
2019-05-20T06:52:38.024Z,73.67
2019-05-20T06:55:09.155Z,75.20
2019-05-20T06:57:37.618Z,73.63
2019-05-20T07:00:09.649Z,75.00
2019-05-20T07:02:38.049Z,62.80
2019-05-20T07:05:08.577Z,58.20
2019-05-20T07:07:36.989Z,60.30
2019-05-20T07:10:08.065Z,59.53
2019-05-20T07:12:41.224Z,55.77
2019-05-20T07:15:08.738Z,54.80
2019-05-20T07:17:37.211Z,61.70
2019-05-20T07:20:06.651Z,77.07
2019-05-20T07:22:53.931Z,78.93
2019-05-20T07:25:07.752Z,90.47
2019-05-20T07:27:36.213Z,85.33
2019-05-20T07:30:06.509Z,87.90
2019-05-20T07:32:34.918Z,85.17
2019-05-20T07:35:04.582Z,78.43
2019-05-20T07:37:33.060Z,81.90
2019-05-20T07:40:01.933Z,81.27
2019-05-20T07:42:31.002Z,71.20
2019-05-20T07:44:59.473Z,74.43
2019-05-20T07:47:27.948Z,72.23
2019-05-20T07:49:57.277Z,67.00
2019-05-20T07:52:28.418Z,62.30
2019-05-20T07:54:58.477Z,60.17
2019-05-20T07:57:29.964Z,66.00
2019-05-20T07:59:58.505Z,66.23
2019-05-20T08:02:29.025Z,68.83
2019-05-20T08:04:57.474Z,68.10
2019-05-20T08:07:35.628Z,66.73
2019-05-20T08:09:56.061Z,59.23
2019-05-20T08:12:24.457Z,54.00
2019-05-20T08:14:52.866Z,56.27
2019-05-20T08:17:21.342Z,54.83
2019-05-20T08:19:49.734Z,59.97
2019-05-20T08:22:18.138Z,54.97
2019-05-20T08:24:46.538Z,65.97
2019-05-20T08:27:14.940Z,58.93
2019-05-20T08:29:43.492Z,50.00
2019-05-20T08:32:11.896Z,55.90
2019-05-20T08:34:40.589Z,58.60
2019-05-20T08:37:09.838Z,60.93
2019-05-20T08:39:38.767Z,62.47
2019-05-20T08:42:07.187Z,63.03
2019-05-20T08:44:35.585Z,65.63
2019-05-20T08:47:04.200Z,64.70
2019-05-20T08:49:32.791Z,65.13
2019-05-20T08:52:01.779Z,72.83
2019-05-20T08:54:30.181Z,73.83
2019-05-20T08:56:58.578Z,68.13
2019-05-20T08:59:26.972Z,58.90
2019-05-20T09:01:55.374Z,66.30
2019-05-20T09:04:23.770Z,68.53
2019-05-20T09:06:52.162Z,61.20
2019-05-20T09:09:20.566Z,54.57
2019-05-20T09:11:48.970Z,57.63
2019-05-20T09:14:17.438Z,58.67
2019-05-20T09:16:45.834Z,65.40
2019-05-20T09:19:14.250Z,62.03
2019-05-20T09:21:42.629Z,63.17
2019-05-20T09:24:11.034Z,63.13
2019-05-20T09:26:39.433Z,63.10
2019-05-20T09:29:11.194Z,60.77
2019-05-20T09:31:38.286Z,57.20
2019-05-20T09:34:06.767Z,59.03
2019-05-20T09:36:35.168Z,55.77
2019-05-20T09:39:04.990Z,51.13
2019-05-20T09:41:33.386Z,54.37
2019-05-20T09:44:01.785Z,53.63
2019-05-20T09:46:30.202Z,59.40
2019-05-20T09:48:58.595Z,55.77
2019-05-20T09:51:27.003Z,54.57
2019-05-20T09:53:55.407Z,49.67
2019-05-20T09:56:23.802Z,50.80
2019-05-20T09:58:52.219Z,53.37
2019-05-20T10:01:20.613Z,54.37
2019-05-20T10:03:49.021Z,56.83
2019-05-20T10:06:17.574Z,55.70
2019-05-20T10:08:45.987Z,54.53
2019-05-20T10:11:14.400Z,56.70
2019-05-20T10:13:42.856Z,57.10
2019-05-20T10:16:11.246Z,61.53
2019-05-20T10:18:39.743Z,52.77
2019-05-20T10:21:08.143Z,55.90
2019-05-20T10:23:36.614Z,53.00
2019-05-20T10:26:05.805Z,55.23
2019-05-20T10:28:34.199Z,60.23
2019-05-20T10:31:02.621Z,61.80
2019-05-20T10:33:31.013Z,57.43
2019-05-20T10:35:59.421Z,63.00
2019-05-20T10:38:27.814Z,65.87
2019-05-20T10:40:56.210Z,68.03
2019-05-20T10:43:24.856Z,71.93
2019-05-20T10:45:53.246Z,72.10
2019-05-20T10:48:21.667Z,68.03
2019-05-20T10:50:50.070Z,83.13
2019-05-20T10:53:18.544Z,86.83
2019-05-20T10:55:46.941Z,79.07
2019-05-20T10:58:15.350Z,79.70
2019-05-20T11:01:00.978Z,77.37
2019-05-20T11:03:13.881Z,70.07
2019-05-20T11:05:43.136Z,68.63
2019-05-20T11:08:11.534Z,72.47
2019-05-20T11:10:39.921Z,71.93
2019-05-20T11:13:08.321Z,71.17
2019-05-20T11:15:36.715Z,73.83
2019-05-20T11:18:05.177Z,69.17
2019-05-20T11:20:33.577Z,64.73
2019-05-20T11:23:01.986Z,71.07
2019-05-20T11:25:30.393Z,68.60
2019-05-20T11:27:58.820Z,66.97
2019-05-20T11:30:27.210Z,69.63
2019-05-20T11:32:55.620Z,66.53
2019-05-20T11:35:24.005Z,61.10
2019-05-20T11:37:52.462Z,59.97
2019-05-20T11:40:21.047Z,55.73
2019-05-20T11:42:49.437Z,56.63
2019-05-20T11:45:18.065Z,58.77
2019-05-20T11:47:46.485Z,56.60
2019-05-20T11:50:16.539Z,59.73
2019-05-20T11:52:45.623Z,55.53
2019-05-20T11:55:15.759Z,56.10
2019-05-20T11:57:44.153Z,59.47
2019-05-20T12:00:13.713Z,60.33
2019-05-20T12:02:42.169Z,63.40
2019-05-20T12:05:10.700Z,64.10
2019-05-20T12:07:39.106Z,64.50
2019-05-20T12:10:10.026Z,65.93
2019-05-20T12:12:38.505Z,69.93
2019-05-20T12:15:09.506Z,69.47
2019-05-20T12:17:37.906Z,74.93
2019-05-20T12:20:10.427Z,69.23
2019-05-20T12:22:38.262Z,70.63
2019-05-20T12:25:09.413Z,72.77
2019-05-20T12:27:37.833Z,69.23
2019-05-20T12:30:07.568Z,66.00
2019-05-20T12:32:36.847Z,67.43
2019-05-20T12:35:08.057Z,72.00
2019-05-20T12:37:36.493Z,65.60
2019-05-20T12:40:08.331Z,71.47
2019-05-20T12:42:39.310Z,74.33
2019-05-20T12:45:08.530Z,76.20
2019-05-20T12:47:36.941Z,79.30
2019-05-20T12:50:06.627Z,72.23
2019-05-20T12:52:35.327Z,76.97
2019-05-20T12:55:08.655Z,70.03
2019-05-20T12:57:36.131Z,69.80
2019-05-20T13:00:07.013Z,69.67
2019-05-20T13:02:35.424Z,69.07
2019-05-20T13:05:06.240Z,68.30
2019-05-20T13:07:34.644Z,70.97
2019-05-20T13:10:04.580Z,62.03
2019-05-20T13:12:32.974Z,65.20
2019-05-20T13:15:01.382Z,63.87
2019-05-20T13:17:29.846Z,62.97
2019-05-20T13:19:58.251Z,72.33
2019-05-20T13:22:26.666Z,67.40
2019-05-20T13:24:55.209Z,70.20
2019-05-20T13:27:23.601Z,74.73
2019-05-20T13:29:52.103Z,74.57
2019-05-20T13:32:20.605Z,73.63
2019-05-20T13:34:49.084Z,72.20
2019-05-20T13:37:18.939Z,71.50
2019-05-20T13:39:47.325Z,66.07
2019-05-20T13:42:16.059Z,69.50
2019-05-20T13:44:44.474Z,63.67
2019-05-20T13:47:12.873Z,65.03
2019-05-20T13:49:41.282Z,64.90
2019-05-20T13:52:09.938Z,65.97
2019-05-20T13:54:38.350Z,64.00
2019-05-20T13:57:06.769Z,65.33
2019-05-20T13:59:35.299Z,67.23
2019-05-20T14:02:03.711Z,65.70
2019-05-20T14:04:32.108Z,67.33
2019-05-20T14:07:00.514Z,63.90
2019-05-20T14:09:28.910Z,74.13
2019-05-20T14:11:57.305Z,78.27
2019-05-20T14:14:25.735Z,71.47
2019-05-20T14:16:54.122Z,72.93
2019-05-20T14:19:22.935Z,76.47
2019-05-20T14:21:51.905Z,71.70
2019-05-20T14:24:20.293Z,73.97
2019-05-20T14:26:50.431Z,72.70
2019-05-20T14:29:18.914Z,75.80
2019-05-20T14:31:47.301Z,78.07
2019-05-20T14:34:15.688Z,69.20
2019-05-20T14:36:44.115Z,68.93
2019-05-20T14:39:12.497Z,71.60
2019-05-20T14:41:40.913Z,68.73
2019-05-20T14:44:09.326Z,65.60
2019-05-20T14:46:37.738Z,66.07
2019-05-20T14:49:06.116Z,65.40
2019-05-20T14:51:34.587Z,65.13
2019-05-20T14:54:02.972Z,62.83
2019-05-20T14:56:31.380Z,67.20
2019-05-20T14:59:00.023Z,63.87
2019-05-20T15:01:28.419Z,64.57
2019-05-20T15:03:56.814Z,58.97
2019-05-20T15:06:25.212Z,59.57
2019-05-20T15:08:53.625Z,56.27
2019-05-20T15:11:37.193Z,53.40
2019-05-20T15:13:52.163Z,52.83
2019-05-20T15:16:20.557Z,52.20
2019-05-20T15:18:48.965Z,48.10
2019-05-20T15:21:17.389Z,50.30
2019-05-20T15:23:45.791Z,53.40
2019-05-20T15:26:14.194Z,54.47
2019-05-20T15:28:42.609Z,49.80
2019-05-20T15:31:11.026Z,53.27
2019-05-20T15:33:39.416Z,52.40
2019-05-20T15:36:07.969Z,53.63
2019-05-20T15:38:36.384Z,50.43
2019-05-20T15:41:04.842Z,57.17
2019-05-20T15:43:33.244Z,51.53
2019-05-20T15:46:01.636Z,53.00
2019-05-20T15:48:30.045Z,51.40
2019-05-20T15:50:58.446Z,52.27
2019-05-20T15:53:26.858Z,53.87
2019-05-20T15:55:55.263Z,47.00
2019-05-20T15:58:24.070Z,48.70
2019-05-20T16:00:52.550Z,46.70
2019-05-20T16:03:20.941Z,50.13
2019-05-20T16:05:49.357Z,46.47
2019-05-20T16:08:17.760Z,49.13
2019-05-20T16:10:46.160Z,50.83
2019-05-20T16:13:14.561Z,51.57
2019-05-20T16:15:43.011Z,50.07
2019-05-20T16:18:11.412Z,57.07
2019-05-20T16:20:39.827Z,50.60
2019-05-20T16:23:08.297Z,51.40
2019-05-20T16:25:36.689Z,48.80
2019-05-20T16:28:05.090Z,48.67
2019-05-20T16:30:33.509Z,50.10
2019-05-20T16:33:01.903Z,55.07
2019-05-20T16:35:30.321Z,48.33
2019-05-20T16:37:58.789Z,50.37
2019-05-20T16:40:27.200Z,49.17
2019-05-20T16:42:55.597Z,49.90
2019-05-20T16:45:24.021Z,49.43
2019-05-20T16:47:52.434Z,45.60
2019-05-20T16:50:20.974Z,47.50
2019-05-20T16:52:49.366Z,45.77
2019-05-20T16:55:17.864Z,50.73
2019-05-20T16:57:46.249Z,55.97
2019-05-20T17:00:30.874Z,52.53
2019-05-20T17:02:48.195Z,48.70
2019-05-20T17:05:17.372Z,49.20
2019-05-20T17:07:45.769Z,51.30
2019-05-20T17:10:14.324Z,59.47
2019-05-20T17:12:42.725Z,51.93
2019-05-20T17:15:13.533Z,55.43
2019-05-20T17:17:42.001Z,56.17
2019-05-20T17:20:11.331Z,52.70
2019-05-20T17:22:39.740Z,54.40
2019-05-20T17:25:10.096Z,53.50
2019-05-20T17:27:38.537Z,56.33
2019-05-20T17:30:08.584Z,54.73
2019-05-20T17:32:36.994Z,62.57
2019-05-20T17:35:06.324Z,69.70
2019-05-20T17:37:34.741Z,69.10
2019-05-20T17:40:04.313Z,64.47
2019-05-20T17:42:32.795Z,66.67
2019-05-20T17:45:01.193Z,68.10
2019-05-20T17:47:29.597Z,66.23
2019-05-20T17:49:58.064Z,70.27
2019-05-20T17:52:26.470Z,70.97
2019-05-20T17:54:54.881Z,74.17
2019-05-20T17:57:23.422Z,70.97
2019-05-20T17:59:51.841Z,73.63
2019-05-20T18:02:20.248Z,74.50
2019-05-20T18:04:48.642Z,74.17
2019-05-20T18:07:17.046Z,76.27
2019-05-20T18:09:47.096Z,74.47
2019-05-20T18:12:15.496Z,71.97
2019-05-20T18:14:45.541Z,72.63
2019-05-20T18:17:13.940Z,76.67
2019-05-20T18:19:42.356Z,78.13
2019-05-20T18:22:10.749Z,73.10
2019-05-20T18:24:39.171Z,75.40
2019-05-20T18:27:07.646Z,72.37
2019-05-20T18:29:36.053Z,69.53
2019-05-20T18:32:04.450Z,69.73
2019-05-20T18:34:32.887Z,70.80
2019-05-20T18:37:01.269Z,71.60
2019-05-20T18:39:29.701Z,71.37
2019-05-20T18:41:58.412Z,66.97
2019-05-20T18:44:26.879Z,69.53
2019-05-20T18:46:55.590Z,72.20
2019-05-20T18:49:29.050Z,75.43
2019-05-20T18:51:57.564Z,74.07
2019-05-20T18:54:25.968Z,73.00
2019-05-20T18:56:54.463Z,72.10
2019-05-20T18:59:22.919Z,68.10
2019-05-20T19:02:04.546Z,72.93
2019-05-20T19:04:21.456Z,73.53
2019-05-20T19:06:49.945Z,76.57
2019-05-20T19:09:18.415Z,76.73
2019-05-20T19:11:46.905Z,77.73
2019-05-20T19:14:15.297Z,90.37
2019-05-20T19:16:43.697Z,81.23
2019-05-20T19:19:12.162Z,82.60
2019-05-20T19:21:40.713Z,80.77
2019-05-20T19:24:09.101Z,85.20
2019-05-20T19:26:37.495Z,89.80
2019-05-20T19:29:05.899Z,91.90
2019-05-20T19:31:34.286Z,89.03
2019-05-20T19:34:02.942Z,93.50
2019-05-20T19:36:31.342Z,91.07
2019-05-20T19:38:59.749Z,97.13
2019-05-20T19:41:28.152Z,92.00
2019-05-20T19:43:56.572Z,89.33
2019-05-20T19:46:24.971Z,89.63
2019-05-20T19:48:53.425Z,84.43
2019-05-20T19:51:21.829Z,84.07
2019-05-20T19:53:50.263Z,82.40
2019-05-20T19:56:18.752Z,87.17
2019-05-20T19:58:47.145Z,84.97
2019-05-20T20:01:15.535Z,86.50
2019-05-20T20:03:43.950Z,86.80
2019-05-20T20:06:12.362Z,92.60
2019-05-20T20:08:40.761Z,98.70
2019-05-20T20:11:09.245Z,94.43
2019-05-20T20:13:37.646Z,90.27
2019-05-20T20:16:06.196Z,92.67
2019-05-20T20:18:34.702Z,85.47
2019-05-20T20:21:03.133Z,87.37
2019-05-20T20:23:31.557Z,83.40
2019-05-20T20:25:59.967Z,81.93
2019-05-20T20:28:28.361Z,85.67
2019-05-20T20:30:56.752Z,89.03
2019-05-20T20:33:25.152Z,88.77
2019-05-20T20:35:53.561Z,88.93
2019-05-20T20:38:21.961Z,94.00
2019-05-20T20:40:50.360Z,101.30
2019-05-20T20:43:18.752Z,102.20
2019-05-20T20:45:47.168Z,109.80
2019-05-20T20:48:15.572Z,111.67
2019-05-20T20:50:44.741Z,115.37
2019-05-20T20:53:13.138Z,122.47
2019-05-20T20:55:41.555Z,118.37
2019-05-20T20:58:10.194Z,134.07
2019-05-20T21:00:38.684Z,144.90
2019-05-20T21:03:07.077Z,146.90
2019-05-20T21:05:36.341Z,149.10
2019-05-20T21:08:04.821Z,164.33
2019-05-20T21:10:33.219Z,183.43
2019-05-20T21:13:01.611Z,165.37
2019-05-20T21:15:30.014Z,174.67
2019-05-20T21:17:58.413Z,186.07
2019-05-20T21:20:26.825Z,188.40
2019-05-20T21:22:55.222Z,185.80
2019-05-20T21:25:23.633Z,187.73
2019-05-20T21:27:52.044Z,190.97
2019-05-20T21:30:20.445Z,192.27
2019-05-20T21:32:48.856Z,186.27
2019-05-20T21:35:17.240Z,202.87
2019-05-20T21:37:45.651Z,196.77
2019-05-20T21:40:14.113Z,179.90
2019-05-20T21:42:42.518Z,191.67
2019-05-20T21:45:11.053Z,181.00
2019-05-20T21:47:39.476Z,189.87
2019-05-20T21:50:09.521Z,174.43
2019-05-20T21:52:37.914Z,171.80
2019-05-20T21:55:07.585Z,169.97
2019-05-20T21:57:35.985Z,169.17
2019-05-20T22:00:07.501Z,160.00
2019-05-20T22:02:35.895Z,158.17
2019-05-20T22:05:06.387Z,157.80
2019-05-20T22:07:34.819Z,158.23
2019-05-20T22:10:05.851Z,129.90
2019-05-20T22:12:34.260Z,131.40
2019-05-20T22:15:02.674Z,109.67
2019-05-20T22:17:31.071Z,105.47
2019-05-20T22:19:59.473Z,88.33
2019-05-20T22:22:35.511Z,82.00
2019-05-20T22:25:03.977Z,72.93
2019-05-20T22:27:32.388Z,71.80
2019-05-20T22:30:00.782Z,85.13
2019-05-20T22:32:29.173Z,84.67
2019-05-20T22:34:57.577Z,70.80
2019-05-20T22:37:25.972Z,64.37
2019-05-20T22:39:54.378Z,55.77
2019-05-20T22:42:22.853Z,61.47
2019-05-20T22:44:51.251Z,62.17
2019-05-20T22:47:19.661Z,62.00
2019-05-20T22:49:48.054Z,62.07
2019-05-20T22:52:16.445Z,65.10
2019-05-20T22:54:44.849Z,64.70
2019-05-20T22:57:13.309Z,58.10
2019-05-20T22:59:41.984Z,62.77
2019-05-20T23:02:10.376Z,63.23
2019-05-20T23:04:39.022Z,68.37
2019-05-20T23:07:07.423Z,72.27
2019-05-20T23:09:35.814Z,73.13
2019-05-20T23:12:04.218Z,79.77
2019-05-20T23:14:32.617Z,55.13
2019-05-20T23:17:01.006Z,48.90
2019-05-20T23:19:29.478Z,53.43
2019-05-20T23:21:57.873Z,46.60
2019-05-20T23:24:26.321Z,56.40
2019-05-20T23:26:54.732Z,57.17
2019-05-20T23:29:23.133Z,73.83
2019-05-20T23:31:51.529Z,98.60
2019-05-20T23:34:19.937Z,96.83
2019-05-20T23:36:48.373Z,93.37
2019-05-20T23:39:16.817Z,89.73
2019-05-20T23:41:45.225Z,88.43
2019-05-20T23:44:13.613Z,86.57
2019-05-20T23:46:42.032Z,87.57
2019-05-20T23:49:10.459Z,84.60
2019-05-20T23:51:38.833Z,88.90
2019-05-20T23:54:07.221Z,80.67
2019-05-20T23:56:35.613Z,86.70
2019-05-20T23:59:04.018Z,82.40
